Time;durP1;ratioP1;P1;durP2;ratioP2;P2;SDS_P1;SDS_P2;PMS_P1;PMS_P2;Temp;Humidity;BMP_temperature;BMP_pressure;BME280_temperature;BME280_humidity;BME280_pressure;Samples;Min_cycle;Max_cycle;Signal;HPM_P1;HPM_P2
2023/06/19 00:02:18;;;;;;;17.65;10.23;;;16.50;99.90;;;;;;5052466;28;20032;-44
2023/06/19 00:04:44;;;;;;;16.77;10.18;;;16.40;99.90;;;;;;5033835;28;20552;-43
2023/06/19 00:07:09;;;;;;;16.17;9.52;;;16.40;99.90;;;;;;5051577;28;20127;-48
2023/06/19 00:09:35;;;;;;;21.80;11.10;;;16.40;99.90;;;;;;5052327;28;20029;-50
2023/06/19 00:12:01;;;;;;;19.92;9.70;;;16.30;99.90;;;;;;5052260;28;20078;-50
2023/06/19 00:14:27;;;;;;;17.20;9.88;;;16.30;99.90;;;;;;5051782;28;20017;-51
2023/06/19 00:16:52;;;;;;;17.50;9.60;;;16.30;99.90;;;;;;5051558;28;20480;-43
2023/06/19 00:19:18;;;;;;;20.02;9.80;;;16.20;99.90;;;;;;5052174;28;20024;-49
2023/06/19 00:21:44;;;;;;;20.85;9.82;;;16.20;99.90;;;;;;5052037;28;20107;-44
2023/06/19 00:24:10;;;;;;;20.15;9.07;;;16.20;99.90;;;;;;5052206;28;20037;-48
2023/06/19 00:26:36;;;;;;;23.33;10.15;;;16.20;99.90;;;;;;5052307;28;20055;-52
2023/06/19 00:29:02;;;;;;;18.65;10.02;;;16.20;99.90;;;;;;5051927;28;20346;-44
2023/06/19 00:31:28;;;;;;;15.30;8.98;;;16.20;99.90;;;;;;5052397;28;20047;-47
2023/06/19 00:33:54;;;;;;;20.40;10.15;;;16.30;99.90;;;;;;5051601;28;20076;-47
2023/06/19 00:36:21;;;;;;;18.05;9.55;;;16.30;99.90;;;;;;5052267;28;20029;-49
2023/06/19 00:38:47;;;;;;;20.35;9.93;;;16.40;99.90;;;;;;5052362;28;20100;-43
2023/06/19 00:41:14;;;;;;;16.67;8.85;;;16.40;99.90;;;;;;5052179;28;20489;-46
2023/06/19 00:43:40;;;;;;;18.83;9.70;;;16.40;99.90;;;;;;5044069;28;20026;-51
2023/06/19 00:46:06;;;;;;;17.90;9.75;;;16.40;99.90;;;;;;5037553;28;20044;-47
2023/06/19 00:48:33;;;;;;;15.65;9.25;;;16.50;99.90;;;;;;5052013;28;20541;-46
2023/06/19 00:50:59;;;;;;;15.65;8.07;;;16.50;99.90;;;;;;5051503;28;20524;-48
2023/06/19 00:53:26;;;;;;;19.00;9.60;;;16.50;99.90;;;;;;5052105;28;20745;-46
2023/06/19 00:55:53;;;;;;;15.52;8.52;;;16.50;99.90;;;;;;5050718;28;20021;-55
2023/06/19 00:58:20;;;;;;;15.93;9.18;;;16.50;99.90;;;;;;5038565;28;20028;-46
2023/06/19 01:00:47;;;;;;;15.02;8.48;;;16.50;99.90;;;;;;5037720;28;20040;-54
2023/06/19 01:03:13;;;;;;;20.42;9.85;;;16.50;99.90;;;;;;5050211;28;20025;-47
2023/06/19 01:05:38;;;;;;;17.88;9.02;;;16.50;99.90;;;;;;5051409;28;20052;-43
2023/06/19 01:08:48;;;;;;;20.83;9.98;;;16.50;99.90;;;;;;5051445;28;20029;-47
2023/06/19 01:11:19;;;;;;;19.60;10.10;;;16.50;99.90;;;;;;5047887;28;20025;-46
2023/06/19 01:14:02;;;;;;;17.50;8.80;;;16.50;99.90;;;;;;5047777;28;20390;-45
2023/06/19 01:16:29;;;;;;;21.40;9.35;;;16.50;99.90;;;;;;5046749;28;20108;-43
2023/06/19 01:18:56;;;;;;;17.08;8.70;;;16.60;99.90;;;;;;5051388;28;20493;-44
2023/06/19 01:21:21;;;;;;;18.00;8.93;;;16.60;99.90;;;;;;5051326;28;20123;-54
2023/06/19 01:23:47;;;;;;;16.80;9.07;;;16.60;99.90;;;;;;5050458;28;20096;-48
2023/06/19 01:26:13;;;;;;;14.00;8.75;;;16.70;99.90;;;;;;5051034;28;20096;-46
2023/06/19 01:28:43;;;;;;;19.92;9.02;;;16.60;99.90;;;;;;5051095;28;20025;-49
2023/06/19 01:31:15;;;;;;;17.05;8.70;;;16.60;99.90;;;;;;5051135;28;20108;-53
2023/06/19 01:33:43;;;;;;;20.88;8.95;;;16.60;99.90;;;;;;5050547;28;20397;-47
2023/06/19 01:36:10;;;;;;;17.17;8.45;;;16.60;99.90;;;;;;5050961;28;20549;-49
2023/06/19 01:38:37;;;;;;;18.25;8.35;;;16.60;99.90;;;;;;5051334;28;20468;-46
2023/06/19 01:41:04;;;;;;;15.38;8.68;;;16.60;99.90;;;;;;5050927;28;20029;-42
2023/06/19 01:43:31;;;;;;;17.02;8.50;;;16.60;99.90;;;;;;5050509;28;20143;-49
2023/06/19 01:45:58;;;;;;;16.55;7.82;;;16.60;99.90;;;;;;5050934;28;20048;-42
2023/06/19 01:48:24;;;;;;;16.75;8.98;;;16.60;99.90;;;;;;5050622;28;20044;-44
2023/06/19 01:50:51;;;;;;;17.13;8.65;;;16.60;99.90;;;;;;5050456;28;20384;-50
2023/06/19 01:53:17;;;;;;;17.05;8.15;;;16.60;99.90;;;;;;5050734;28;20025;-43
2023/06/19 01:55:43;;;;;;;16.05;9.18;;;16.60;99.90;;;;;;5050420;28;20025;-46
2023/06/19 01:58:08;;;;;;;16.63;8.60;;;16.60;99.90;;;;;;5050185;28;20029;-47
2023/06/19 02:00:37;;;;;;;17.63;8.85;;;16.60;99.90;;;;;;5050207;28;20104;-47
2023/06/19 02:03:04;;;;;;;23.67;8.85;;;16.60;99.90;;;;;;5050217;28;20029;-43
2023/06/19 02:05:34;;;;;;;15.75;7.80;;;16.60;99.90;;;;;;5050157;28;20091;-58
2023/06/19 02:07:59;;;;;;;18.27;9.13;;;16.50;99.90;;;;;;5050496;28;20021;-49
2023/06/19 02:10:25;;;;;;;14.48;7.93;;;16.50;99.90;;;;;;5050459;28;20170;-47
2023/06/19 02:12:50;;;;;;;15.68;8.23;;;16.50;99.90;;;;;;5050093;28;20056;-56
2023/06/19 02:15:16;;;;;;;19.23;8.57;;;16.60;99.90;;;;;;5050096;28;20021;-54
2023/06/19 02:17:42;;;;;;;19.38;9.18;;;16.60;99.90;;;;;;5050316;28;20068;-47
2023/06/19 02:20:11;;;;;;;14.60;8.35;;;16.50;99.90;;;;;;5049832;28;20037;-47
2023/06/19 02:22:38;;;;;;;18.95;9.05;;;16.50;99.90;;;;;;5049769;28;20481;-55
2023/06/19 02:25:04;;;;;;;18.77;8.90;;;16.50;99.90;;;;;;5050243;28;20045;-52
2023/06/19 02:27:30;;;;;;;18.73;8.23;;;16.50;99.90;;;;;;5050516;28;20071;-52
2023/06/19 02:29:55;;;;;;;16.30;8.10;;;16.50;99.90;;;;;;5040532;28;20029;-42
2023/06/19 02:32:21;;;;;;;15.32;8.10;;;16.60;99.90;;;;;;5039500;28;20036;-48
2023/06/19 02:34:46;;;;;;;16.23;8.20;;;16.50;99.90;;;;;;5050124;28;20476;-52
2023/06/19 02:37:12;;;;;;;19.20;8.75;;;16.50;99.90;;;;;;5050528;28;20025;-43
2023/06/19 02:39:38;;;;;;;21.17;8.95;;;16.50;99.90;;;;;;5050342;28;20033;-45
2023/06/19 02:42:04;;;;;;;17.67;8.15;;;16.50;99.90;;;;;;5049958;28;20362;-43
2023/06/19 02:44:30;;;;;;;20.45;9.20;;;16.40;99.90;;;;;;5050035;28;20441;-49
2023/06/19 02:46:55;;;;;;;21.35;8.57;;;16.40;99.90;;;;;;5051765;28;20078;-49
2023/06/19 02:49:21;;;;;;;18.83;8.55;;;16.30;99.90;;;;;;5032833;28;20063;-52
2023/06/19 02:51:47;;;;;;;17.08;8.60;;;16.30;99.90;;;;;;5053116;28;20473;-49
2023/06/19 02:54:12;;;;;;;16.60;8.77;;;16.20;99.90;;;;;;5053938;28;20068;-47
2023/06/19 02:56:38;;;;;;;15.43;8.30;;;16.20;99.90;;;;;;5046232;28;20036;-49
2023/06/19 02:59:04;;;;;;;17.25;9.05;;;16.20;99.90;;;;;;5047400;28;20045;-46
2023/06/19 03:01:30;;;;;;;18.27;8.43;;;16.10;99.90;;;;;;5053555;28;20042;-51
2023/06/19 03:03:55;;;;;;;16.55;8.25;;;16.10;99.90;;;;;;5053371;28;20029;-46
2023/06/19 03:06:21;;;;;;;18.70;8.98;;;16.10;99.90;;;;;;5053718;28;20032;-49
2023/06/19 03:08:47;;;;;;;17.70;8.60;;;16.10;99.90;;;;;;5053760;28;20551;-52
2023/06/19 03:11:13;;;;;;;19.92;8.25;;;16.10;99.90;;;;;;5053869;28;20021;-51
2023/06/19 03:13:52;;;;;;;19.10;9.00;;;16.10;99.90;;;;;;5052704;28;20500;-43
2023/06/19 03:16:18;;;;;;;17.08;8.68;;;16.10;99.90;;;;;;5053715;28;20108;-46
2023/06/19 03:18:44;;;;;;;16.08;7.38;;;16.10;99.90;;;;;;5053799;28;20463;-49
2023/06/19 03:21:11;;;;;;;16.70;8.82;;;16.10;99.90;;;;;;5053768;28;20110;-53
2023/06/19 03:23:36;;;;;;;14.65;7.80;;;16.10;99.90;;;;;;5053158;28;20024;-53
2023/06/19 03:26:02;;;;;;;17.15;7.93;;;16.00;99.90;;;;;;5053644;28;20512;-47
2023/06/19 03:28:28;;;;;;;17.08;7.78;;;16.00;99.90;;;;;;5053426;28;20119;-46
2023/06/19 03:30:54;;;;;;;15.02;7.78;;;16.10;99.90;;;;;;5053191;28;20025;-49
2023/06/19 03:33:20;;;;;;;18.33;8.50;;;16.10;99.90;;;;;;5053291;28;20108;-47
2023/06/19 03:35:45;;;;;;;14.30;7.80;;;16.00;99.90;;;;;;5053258;28;20041;-47
2023/06/19 03:38:11;;;;;;;15.40;8.82;;;16.10;99.90;;;;;;5053409;28;20128;-50
2023/06/19 03:40:37;;;;;;;18.27;8.70;;;16.10;99.90;;;;;;5052004;28;20037;-53
2023/06/19 03:43:02;;;;;;;16.48;8.43;;;16.10;99.90;;;;;;5053027;28;20477;-51
2023/06/19 03:45:28;;;;;;;18.23;8.45;;;16.10;99.90;;;;;;5053283;28;20037;-45
2023/06/19 03:47:53;;;;;;;14.20;7.57;;;16.10;99.90;;;;;;5050313;28;20388;-49
2023/06/19 03:50:19;;;;;;;15.60;7.90;;;16.10;99.90;;;;;;5053199;28;20053;-55
2023/06/19 03:52:45;;;;;;;16.98;8.18;;;16.20;99.90;;;;;;5052543;28;20029;-46
2023/06/19 03:55:11;;;;;;;16.63;7.38;;;16.20;99.90;;;;;;5052682;28;20101;-46
2023/06/19 03:57:36;;;;;;;15.65;7.65;;;16.30;99.90;;;;;;5052017;28;20025;-48
2023/06/19 04:00:07;;;;;;;16.38;7.93;;;16.30;99.90;;;;;;5053167;28;20436;-51
2023/06/19 04:02:33;;;;;;;16.92;8.25;;;16.40;99.90;;;;;;5053213;28;20025;-51
2023/06/19 04:04:59;;;;;;;16.08;7.97;;;16.40;99.90;;;;;;5052763;28;20068;-43
2023/06/19 04:07:24;;;;;;;19.00;7.93;;;16.40;99.90;;;;;;5052482;28;20086;-51
2023/06/19 04:09:50;;;;;;;16.05;7.57;;;16.40;99.90;;;;;;5052536;28;20033;-43
2023/06/19 04:12:15;;;;;;;17.40;7.72;;;16.40;99.90;;;;;;5052590;28;20025;-48
2023/06/19 04:14:41;;;;;;;14.32;7.70;;;16.40;99.90;;;;;;5052534;28;20029;-48
2023/06/19 04:17:07;;;;;;;15.55;7.75;;;16.40;99.90;;;;;;5052695;28;20107;-53
2023/06/19 04:19:32;;;;;;;17.08;7.95;;;16.30;99.90;;;;;;5052682;28;20432;-48
2023/06/19 04:21:58;;;;;;;17.95;8.00;;;16.40;99.90;;;;;;5052604;28;20554;-44
2023/06/19 04:24:24;;;;;;;17.98;8.23;;;16.40;99.90;;;;;;5052370;28;20041;-55
2023/06/19 04:26:49;;;;;;;16.88;7.70;;;16.40;99.90;;;;;;5052257;28;20469;-52
2023/06/19 04:29:16;;;;;;;16.55;8.15;;;16.40;99.90;;;;;;5052520;28;20044;-48
2023/06/19 04:31:46;;;;;;;16.73;8.23;;;16.40;99.90;;;;;;5052330;28;20025;-49
2023/06/19 04:34:14;;;;;;;13.77;8.07;;;16.40;99.90;;;;;;5052228;28;20037;-49
2023/06/19 04:36:40;;;;;;;18.15;8.60;;;16.50;99.90;;;;;;5051915;28;20029;-49
2023/06/19 04:39:06;;;;;;;16.55;7.90;;;16.50;99.90;;;;;;5051889;28;20104;-45
2023/06/19 04:41:32;;;;;;;14.50;8.00;;;16.50;99.90;;;;;;5051841;28;20117;-47
2023/06/19 04:43:57;;;;;;;18.85;8.57;;;16.50;99.90;;;;;;5051006;28;20678;-49
2023/06/19 04:46:23;;;;;;;15.75;8.57;;;16.50;99.90;;;;;;5051484;28;20036;-44
2023/06/19 04:48:50;;;;;;;14.32;7.07;;;16.60;99.90;;;;;;5051665;28;20032;-50
2023/06/19 04:51:20;;;;;;;24.52;8.70;;;16.60;99.90;;;;;;5052075;28;20507;-45
2023/06/19 04:53:48;;;;;;;17.85;7.90;;;16.60;99.90;;;;;;5051397;28;20025;-47
2023/06/19 04:56:14;;;;;;;14.15;7.38;;;16.60;99.90;;;;;;5051804;28;20040;-53
2023/06/19 04:58:45;;;;;;;17.20;8.23;;;16.70;99.90;;;;;;5050702;28;20029;-52
2023/06/19 05:01:12;;;;;;;14.00;7.70;;;16.80;99.90;;;;;;5051645;28;20048;-51
2023/06/19 05:03:38;;;;;;;18.40;8.32;;;16.80;99.90;;;;;;5051140;28;20100;-49
2023/06/19 05:06:03;;;;;;;15.85;8.20;;;16.80;99.90;;;;;;5050843;28;20119;-51
2023/06/19 05:08:29;;;;;;;14.98;6.72;;;16.90;99.90;;;;;;5050270;28;20343;-55
2023/06/19 05:10:56;;;;;;;13.07;6.70;;;16.80;99.90;;;;;;5051329;28;20031;-47
2023/06/19 05:13:21;;;;;;;15.75;7.32;;;16.90;99.90;;;;;;5051255;28;20037;-43
2023/06/19 05:15:48;;;;;;;14.77;7.22;;;16.90;99.90;;;;;;5050978;28;20023;-50
2023/06/19 05:18:14;;;;;;;15.85;7.53;;;16.90;99.90;;;;;;5051473;28;20083;-47
2023/06/19 05:20:39;;;;;;;13.45;6.97;;;16.90;99.90;;;;;;5050866;28;20029;-48
2023/06/19 05:23:05;;;;;;;12.30;6.40;;;16.90;99.90;;;;;;5049470;28;20107;-43
2023/06/19 05:25:31;;;;;;;14.88;7.00;;;17.00;99.90;;;;;;5051152;28;20032;-49
2023/06/19 05:27:56;;;;;;;15.15;7.10;;;17.00;99.90;;;;;;5050896;28;20458;-45
2023/06/19 05:30:22;;;;;;;13.50;7.22;;;17.00;99.90;;;;;;5050892;28;20037;-48
2023/06/19 05:32:47;;;;;;;14.55;7.57;;;17.00;99.90;;;;;;5050557;28;20021;-48
2023/06/19 05:35:13;;;;;;;15.00;6.82;;;17.10;99.90;;;;;;5050445;28;20055;-43
2023/06/19 05:37:39;;;;;;;12.27;6.88;;;17.20;99.90;;;;;;5050967;28;20490;-50
2023/06/19 05:40:06;;;;;;;12.02;7.22;;;17.40;99.90;;;;;;5050998;28;20032;-43
2023/06/19 05:42:31;;;;;;;15.63;6.60;;;17.40;99.90;;;;;;5050805;28;20017;-47
2023/06/19 05:44:57;;;;;;;15.25;7.30;;;17.50;99.90;;;;;;5050560;28;20405;-44
2023/06/19 05:47:25;;;;;;;12.65;6.25;;;17.50;99.90;;;;;;5050879;28;20037;-47
2023/06/19 05:49:51;;;;;;;11.55;6.55;;;17.50;99.90;;;;;;5050557;28;20032;-49
2023/06/19 05:52:17;;;;;;;11.32;6.10;;;17.60;99.90;;;;;;5049774;28;20071;-46
2023/06/19 05:54:42;;;;;;;9.48;5.18;;;17.70;99.90;;;;;;5050235;28;20037;-50
2023/06/19 05:57:08;;;;;;;11.00;5.85;;;17.90;99.90;;;;;;5050295;28;20025;-47
2023/06/19 05:59:34;;;;;;;10.27;5.70;;;18.10;99.90;;;;;;5050756;28;20124;-43
2023/06/19 06:01:59;;;;;;;11.07;5.32;;;18.70;99.90;;;;;;5049881;28;20451;-48
2023/06/19 06:04:25;;;;;;;11.10;5.68;;;19.00;99.90;;;;;;5050099;28;20036;-47
2023/06/19 06:06:51;;;;;;;10.40;4.97;;;19.40;99.90;;;;;;5049990;28;20051;-50
2023/06/19 06:09:16;;;;;;;11.38;5.53;;;19.50;99.90;;;;;;5050244;28;20018;-47
2023/06/19 06:11:42;;;;;;;13.80;6.07;;;19.50;99.90;;;;;;5049973;28;20021;-52
2023/06/19 06:14:07;;;;;;;10.55;5.20;;;19.60;99.90;;;;;;5050225;28;20052;-46
2023/06/19 06:16:33;;;;;;;8.82;4.80;;;19.60;99.90;;;;;;5050057;28;20028;-49
2023/06/19 06:18:59;;;;;;;10.43;4.85;;;19.50;99.90;;;;;;5050284;28;20017;-46
2023/06/19 06:21:24;;;;;;;8.15;4.32;;;19.60;99.90;;;;;;5050096;28;20013;-47
2023/06/19 06:23:50;;;;;;;8.80;4.65;;;19.80;99.90;;;;;;5049798;28;20070;-48
2023/06/19 06:26:16;;;;;;;8.07;5.28;;;20.30;99.90;;;;;;5050279;28;20108;-46
2023/06/19 06:28:41;;;;;;;10.13;4.35;;;20.50;99.90;;;;;;5050092;28;20024;-52
2023/06/19 06:31:07;;;;;;;9.48;5.53;;;20.50;99.90;;;;;;5049674;28;20029;-47
2023/06/19 06:33:33;;;;;;;6.40;4.50;;;20.40;99.90;;;;;;5049620;28;20043;-54
2023/06/19 06:35:59;;;;;;;7.53;4.20;;;20.10;99.90;;;;;;5049963;28;20578;-49
2023/06/19 06:38:25;;;;;;;12.07;4.85;;;19.90;99.90;;;;;;5048176;28;20029;-45
2023/06/19 06:40:51;;;;;;;9.82;4.22;;;19.70;99.90;;;;;;5047370;28;20493;-44
2023/06/19 06:43:17;;;;;;;9.02;4.30;;;19.60;99.90;;;;;;5049627;28;20544;-56
2023/06/19 06:45:42;;;;;;;9.48;4.53;;;20.00;99.90;;;;;;5049733;28;20128;-48
2023/06/19 06:48:08;;;;;;;6.25;4.03;;;20.80;99.90;;;;;;5050153;28;20082;-50
2023/06/19 06:50:34;;;;;;;10.23;4.78;;;21.00;99.90;;;;;;5049532;28;20117;-49
2023/06/19 06:53:00;;;;;;;8.27;4.65;;;21.20;99.90;;;;;;5048624;28;20083;-48
2023/06/19 06:55:26;;;;;;;7.85;4.25;;;21.20;99.90;;;;;;5049606;28;20515;-44
2023/06/19 06:57:52;;;;;;;6.65;4.03;;;21.20;99.90;;;;;;5050046;28;20029;-45
2023/06/19 07:00:18;;;;;;;6.15;3.67;;;21.50;99.90;;;;;;5049527;28;20081;-44
2023/06/19 07:02:46;;;;;;;6.00;3.90;;;21.60;99.90;;;;;;5047682;28;20112;-45
2023/06/19 07:05:12;;;;;;;8.43;4.50;;;21.50;99.90;;;;;;5048277;28;20401;-46
2023/06/19 07:07:37;;;;;;;6.95;3.72;;;21.40;99.90;;;;;;5046198;28;20785;-44
2023/06/19 07:10:03;;;;;;;8.55;4.28;;;21.60;99.90;;;;;;5049458;28;20040;-44
2023/06/19 07:12:29;;;;;;;8.27;3.95;;;21.80;99.90;;;;;;5051989;28;20094;-45
2023/06/19 07:14:55;;;;;;;8.80;5.32;;;22.30;99.90;;;;;;5049564;28;20052;-44
2023/06/19 07:17:21;;;;;;;8.90;4.32;;;22.90;99.90;;;;;;5049669;28;20060;-44
2023/06/19 07:19:46;;;;;;;6.50;3.55;;;23.70;99.90;;;;;;5049841;28;20653;-49
2023/06/19 07:22:13;;;;;;;8.15;3.25;;;24.20;99.90;;;;;;5049498;28;20048;-44
2023/06/19 07:24:40;;;;;;;8.25;3.60;;;24.50;99.90;;;;;;5049175;28;20029;-47
2023/06/19 07:27:06;;;;;;;5.43;2.60;;;24.30;99.90;;;;;;5044435;28;20029;-51
2023/06/19 07:29:32;;;;;;;5.50;3.00;;;24.60;99.90;;;;;;5048170;28;20044;-46
2023/06/19 07:31:58;;;;;;;6.60;2.80;;;24.90;99.90;;;;;;5048490;28;20024;-48
2023/06/19 07:34:24;;;;;;;5.50;2.47;;;25.00;99.90;;;;;;5050880;28;20118;-46
2023/06/19 07:36:50;;;;;;;5.15;2.65;;;25.40;99.90;;;;;;5051455;28;20404;-47
2023/06/19 07:39:16;;;;;;;6.07;2.70;;;25.80;99.90;;;;;;5052753;28;20049;-47
2023/06/19 07:41:41;;;;;;;4.65;2.17;;;26.20;99.90;;;;;;5053416;28;20485;-58
2023/06/19 07:44:07;;;;;;;4.80;2.45;;;26.50;99.90;;;;;;5052042;28;20028;-46
2023/06/19 07:46:33;;;;;;;3.67;2.00;;;26.70;99.90;;;;;;5052474;28;20111;-49
2023/06/19 07:48:58;;;;;;;6.07;2.65;;;26.30;99.90;;;;;;5053201;28;20028;-46
2023/06/19 07:51:24;;;;;;;5.03;2.45;;;26.30;99.90;;;;;;5052007;28;20040;-45
2023/06/19 07:53:50;;;;;;;3.90;2.45;;;26.40;99.90;;;;;;5051757;28;20025;-47
2023/06/19 07:56:15;;;;;;;4.38;2.40;;;26.80;99.90;;;;;;5048991;28;20484;-47
2023/06/19 07:58:41;;;;;;;4.22;2.50;;;26.60;99.90;;;;;;5048225;28;20494;-45
2023/06/19 08:01:07;;;;;;;4.15;2.03;;;26.50;99.90;;;;;;5052577;28;20029;-49
2023/06/19 08:03:32;;;;;;;4.05;2.30;;;26.40;99.90;;;;;;5053342;28;20725;-46
2023/06/19 08:05:58;;;;;;;4.90;2.60;;;26.60;99.90;;;;;;5051223;28;20033;-57
2023/06/19 08:08:24;;;;;;;3.35;2.15;;;26.60;99.90;;;;;;5051338;28;20090;-50
2023/06/19 08:10:49;;;;;;;5.50;2.42;;;26.70;99.90;;;;;;5050480;28;20483;-49
2023/06/19 08:13:15;;;;;;;4.82;3.40;;;26.50;99.90;;;;;;5047775;28;20021;-46
2023/06/19 08:15:40;;;;;;;5.57;2.63;;;26.20;99.90;;;;;;5051115;28;20461;-47
2023/06/19 08:18:06;;;;;;;4.35;2.42;;;26.00;99.90;;;;;;5050553;28;20035;-53
2023/06/19 08:20:31;;;;;;;6.20;2.78;;;25.90;99.90;;;;;;5047966;28;20039;-46
2023/06/19 08:22:57;;;;;;;5.15;2.72;;;25.50;99.90;;;;;;5050226;28;20037;-53
2023/06/19 08:25:23;;;;;;;6.35;2.70;;;25.10;99.90;;;;;;5055573;28;20044;-49
2023/06/19 08:27:48;;;;;;;6.45;2.97;;;24.50;99.90;;;;;;5053217;28;20069;-50
2023/06/19 08:30:14;;;;;;;6.97;3.33;;;24.10;99.90;;;;;;5051773;28;20037;-56
2023/06/19 08:32:40;;;;;;;5.43;2.83;;;23.70;99.90;;;;;;5051976;28;20104;-54
2023/06/19 08:35:06;;;;;;;5.18;3.00;;;23.40;99.90;;;;;;5050086;28;20056;-48
2023/06/19 08:37:31;;;;;;;5.47;3.20;;;23.20;99.90;;;;;;5051880;28;20074;-51
2023/06/19 08:39:57;;;;;;;6.85;3.53;;;23.10;99.90;;;;;;5044360;28;20033;-54
2023/06/19 08:42:29;;;;;;;7.68;3.50;;;22.90;99.90;;;;;;5043825;28;20082;-49
2023/06/19 08:44:55;;;;;;;6.18;3.22;;;22.80;99.90;;;;;;5050014;28;20047;-51
2023/06/19 08:47:21;;;;;;;5.55;3.25;;;22.60;99.90;;;;;;5049544;28;20116;-53
2023/06/19 08:49:46;;;;;;;6.32;3.38;;;22.40;99.90;;;;;;5050215;28;20078;-54
2023/06/19 08:52:12;;;;;;;8.40;3.33;;;22.30;99.90;;;;;;5051790;28;20071;-42
2023/06/19 08:54:43;;;;;;;7.00;3.92;;;22.20;99.90;;;;;;5051460;28;20052;-49
2023/06/19 08:57:10;;;;;;;7.00;3.13;;;22.00;99.90;;;;;;5051989;28;20081;-53
2023/06/19 08:59:36;;;;;;;5.18;3.60;;;21.60;99.90;;;;;;5052060;28;20517;-47
2023/06/19 09:02:02;;;;;;;6.85;3.97;;;21.30;99.90;;;;;;5049973;28;20021;-44
2023/06/19 09:04:28;;;;;;;6.95;4.45;;;21.30;99.90;;;;;;5048369;28;20032;-46
2023/06/19 09:07:00;;;;;;;5.82;3.85;;;21.10;99.90;;;;;;5049865;28;20057;-46
2023/06/19 09:09:26;;;;;;;5.68;3.50;;;21.10;99.90;;;;;;5035143;28;20023;-50
2023/06/19 09:12:07;;;;;;;6.72;4.55;;;21.00;99.90;;;;;;5047044;28;20521;-47
2023/06/19 09:14:41;;;;;;;8.73;4.93;;;21.40;99.90;;;;;;5047695;28;20092;-57
2023/06/19 09:17:32;;;;;;;8.10;5.13;;;21.50;99.90;;;;;;5050484;28;20366;-49
2023/06/19 09:19:59;;;;;;;10.50;5.20;;;21.60;99.90;;;;;;5039066;28;20398;-46
2023/06/19 09:22:25;;;;;;;10.00;5.80;;;22.00;99.90;;;;;;5050619;28;20056;-51
2023/06/19 09:24:51;;;;;;;9.90;5.35;;;22.20;99.90;;;;;;5051286;28;20489;-48
2023/06/19 09:27:19;;;;;;;10.55;5.43;;;22.40;99.90;;;;;;5049408;28;20103;-47
2023/06/19 09:29:49;;;;;;;10.90;5.32;;;22.60;99.90;;;;;;5048537;28;20086;-53
2023/06/19 09:32:22;;;;;;;9.75;5.82;;;22.70;99.90;;;;;;5049564;28;20025;-47
2023/06/19 09:34:50;;;;;;;9.15;5.40;;;22.70;99.90;;;;;;5050705;28;20025;-50
2023/06/19 09:37:23;;;;;;;10.00;6.15;;;22.30;99.90;;;;;;5050872;28;20076;-46
2023/06/19 09:39:53;;;;;;;10.48;6.10;;;22.30;99.90;;;;;;5050117;28;20405;-53
2023/06/19 09:42:30;;;;;;;9.57;6.70;;;22.10;99.90;;;;;;5050461;28;20025;-48
2023/06/19 09:45:06;;;;;;;11.48;6.90;;;21.90;99.90;;;;;;5047995;28;20120;-54
2023/06/19 09:47:36;;;;;;;9.13;6.47;;;22.20;99.90;;;;;;5049935;28;20029;-53
2023/06/19 09:50:03;;;;;;;11.52;7.47;;;22.40;99.90;;;;;;5050480;28;20083;-45
2023/06/19 09:52:29;;;;;;;10.15;6.10;;;22.50;99.90;;;;;;5049739;28;20072;-52
2023/06/19 09:54:56;;;;;;;7.63;5.50;;;22.80;99.90;;;;;;5049970;28;20047;-49
2023/06/19 09:57:22;;;;;;;6.78;4.63;;;23.30;99.90;;;;;;5050028;28;20076;-43
2023/06/19 09:59:52;;;;;;;6.47;4.60;;;23.80;99.90;;;;;;5049695;28;20491;-47
2023/06/19 10:02:20;;;;;;;5.38;3.92;;;24.20;99.90;;;;;;5050249;28;20477;-47
2023/06/19 10:04:55;;;;;;;7.85;4.25;;;24.20;99.90;;;;;;5050374;28;20047;-45
2023/06/19 10:07:27;;;;;;;13.30;4.88;;;23.90;99.90;;;;;;5049858;28;21483;-45
2023/06/19 10:10:07;;;;;;;7.13;4.65;;;23.50;99.90;;;;;;5050294;28;20481;-43
2023/06/19 10:12:38;;;;;;;7.30;5.03;;;23.70;99.90;;;;;;5048394;28;20029;-45
2023/06/19 10:15:17;;;;;;;6.68;4.88;;;23.80;99.90;;;;;;5049926;28;20029;-44
2023/06/19 10:18:00;;;;;;;8.25;4.93;;;23.60;99.90;;;;;;5050398;28;20062;-48
2023/06/19 10:20:33;;;;;;;6.35;4.43;;;23.70;99.90;;;;;;5050533;28;20036;-46
2023/06/19 10:23:03;;;;;;;9.05;5.65;;;23.90;99.90;;;;;;5049948;28;20028;-44
2023/06/19 10:25:43;;;;;;;8.55;5.32;;;23.80;99.90;;;;;;5049938;28;20513;-44
2023/06/19 10:28:18;;;;;;;9.60;5.68;;;23.60;99.90;;;;;;5049618;28;20074;-45
2023/06/19 10:30:44;;;;;;;10.63;5.80;;;23.20;99.90;;;;;;5049860;28;20040;-48
2023/06/19 10:33:10;;;;;;;7.75;5.53;;;22.90;99.90;;;;;;5049777;28;20017;-49
2023/06/19 10:35:40;;;;;;;8.00;5.38;;;22.70;99.90;;;;;;5049699;28;20032;-45
2023/06/19 10:38:10;;;;;;;9.30;5.90;;;22.60;99.90;;;;;;5049223;28;20044;-49
2023/06/19 10:40:37;;;;;;;7.28;4.90;;;22.50;99.90;;;;;;5049913;28;20467;-55
2023/06/19 10:43:03;;;;;;;7.57;5.13;;;22.40;99.90;;;;;;5049530;28;20037;-58
2023/06/19 10:45:29;;;;;;;7.90;5.00;;;22.60;99.90;;;;;;5049655;28;20405;-47
2023/06/19 10:47:56;;;;;;;7.13;4.82;;;22.80;99.90;;;;;;5048333;28;20021;-52
2023/06/19 10:50:22;;;;;;;9.10;5.82;;;23.00;99.90;;;;;;5049004;28;20025;-50
2023/06/19 10:52:52;;;;;;;6.97;4.88;;;23.30;99.90;;;;;;5049202;28;20703;-53
2023/06/19 10:55:17;;;;;;;8.50;5.28;;;23.80;99.90;;;;;;5049844;28;20116;-52
2023/06/19 10:57:47;;;;;;;8.85;4.85;;;23.80;99.90;;;;;;5049562;28;20206;-50
2023/06/19 11:00:33;;;;;;;11.52;5.60;;;23.70;99.90;;;;;;5049627;28;20037;-49
2023/06/19 11:02:59;;;;;;;6.65;4.43;;;23.70;99.90;;;;;;5039045;28;20481;-49
2023/06/19 11:05:26;;;;;;;8.82;5.40;;;23.60;99.90;;;;;;5047541;28;20044;-51
2023/06/19 11:07:58;;;;;;;7.78;4.95;;;23.50;99.90;;;;;;5052454;28;20044;-48
2023/06/19 11:10:28;;;;;;;7.25;4.28;;;23.40;99.90;;;;;;5053857;28;20707;-47
2023/06/19 11:12:58;;;;;;;7.97;5.30;;;23.40;99.90;;;;;;5053110;28;20033;-55
2023/06/19 11:15:34;;;;;;;9.18;5.50;;;23.80;99.90;;;;;;5053469;28;20040;-49
2023/06/19 11:18:01;;;;;;;7.30;4.90;;;23.60;99.90;;;;;;5051648;28;20500;-47
2023/06/19 11:20:28;;;;;;;8.13;4.97;;;23.30;99.90;;;;;;5053232;28;20030;-48
2023/06/19 11:23:03;;;;;;;9.63;5.47;;;23.10;99.90;;;;;;5053033;28;20013;-47
2023/06/19 11:25:39;;;;;;;8.15;4.93;;;23.10;99.90;;;;;;5052945;28;20048;-44
2023/06/19 11:28:22;;;;;;;10.55;5.32;;;23.10;99.90;;;;;;5046324;28;20108;-57
2023/06/19 11:30:49;;;;;;;8.90;5.65;;;23.10;99.90;;;;;;5046844;28;20612;-53
2023/06/19 11:33:24;;;;;;;8.63;5.72;;;23.20;99.90;;;;;;5052209;28;20450;-48
2023/06/19 11:35:51;;;;;;;9.82;5.50;;;23.30;99.90;;;;;;5046721;28;20033;-52
2023/06/19 11:38:18;;;;;;;7.18;4.97;;;23.60;99.90;;;;;;5045321;28;20134;-47
2023/06/19 11:40:45;;;;;;;8.63;5.95;;;23.60;99.90;;;;;;5050939;28;20505;-42
2023/06/19 11:43:11;;;;;;;7.72;5.15;;;23.60;99.90;;;;;;5051667;28;20121;-53
2023/06/19 11:45:48;;;;;;;8.75;5.68;;;23.70;99.90;;;;;;5052836;28;20039;-49
2023/06/19 11:48:13;;;;;;;8.95;6.00;;;23.40;99.90;;;;;;5051987;28;20033;-47
2023/06/19 11:50:39;;;;;;;8.38;6.25;;;23.10;99.90;;;;;;5050396;28;20025;-48
2023/06/19 11:53:04;;;;;;;10.63;6.50;;;23.00;99.90;;;;;;5051171;28;20184;-55
2023/06/19 11:55:30;;;;;;;11.13;5.82;;;22.60;99.90;;;;;;5051531;28;20083;-44
2023/06/19 11:57:55;;;;;;;12.35;5.85;;;22.80;99.90;;;;;;5051767;28;20067;-48
2023/06/19 12:00:21;;;;;;;9.27;6.13;;;23.00;99.90;;;;;;5051664;28;20380;-50
2023/06/19 12:02:47;;;;;;;10.63;6.45;;;23.20;99.90;;;;;;5052674;28;20048;-49
2023/06/19 12:05:14;;;;;;;9.60;6.13;;;23.40;99.90;;;;;;5052459;28;20465;-49
2023/06/19 12:07:39;;;;;;;9.70;6.25;;;23.40;99.90;;;;;;5044366;28;20029;-54
2023/06/19 12:10:09;;;;;;;10.20;6.13;;;23.40;99.90;;;;;;5052881;28;20021;-49
2023/06/19 12:12:37;;;;;;;10.88;5.95;;;23.40;99.90;;;;;;5052505;28;20115;-48
2023/06/19 12:15:04;;;;;;;8.18;5.88;;;23.20;99.90;;;;;;5051047;28;20032;-53
2023/06/19 12:17:29;;;;;;;11.30;5.57;;;23.40;99.90;;;;;;5050541;28;20425;-50
2023/06/19 12:19:55;;;;;;;7.88;4.90;;;23.30;99.90;;;;;;5052388;28;20025;-45
2023/06/19 12:22:21;;;;;;;5.50;4.15;;;23.30;99.90;;;;;;5052187;28;20025;-48
2023/06/19 12:24:46;;;;;;;8.20;4.93;;;23.40;99.90;;;;;;5052299;28;20040;-43
2023/06/19 12:27:12;;;;;;;8.77;4.82;;;23.30;99.90;;;;;;5052441;28;20580;-52
2023/06/19 12:29:38;;;;;;;7.95;4.50;;;23.20;99.90;;;;;;5052506;28;20029;-50
2023/06/19 12:32:04;;;;;;;7.70;4.30;;;23.30;99.90;;;;;;5052485;28;20033;-56
2023/06/19 12:34:29;;;;;;;6.65;3.67;;;23.60;99.90;;;;;;5052129;28;20470;-49
2023/06/19 12:36:56;;;;;;;5.57;3.83;;;24.00;99.90;;;;;;5051995;28;20080;-51
2023/06/19 12:39:22;;;;;;;8.45;4.55;;;24.40;99.90;;;;;;5050928;28;20021;-55
2023/06/19 12:41:48;;;;;;;7.38;4.32;;;24.80;99.90;;;;;;5052447;28;20393;-49